createdAt,value
2018-08-30T00:00:25.331Z,0.00
2018-08-30T00:01:25.564Z,0.00
2018-08-30T00:02:25.792Z,0.00
2018-08-30T00:03:26.024Z,0.00
2018-08-30T00:04:26.262Z,0.00
2018-08-30T00:05:26.475Z,0.00
2018-08-30T00:06:26.704Z,0.00
2018-08-30T00:07:26.940Z,0.00
2018-08-30T00:08:27.174Z,0.00
2018-08-30T00:09:27.399Z,0.00
2018-08-30T00:10:27.642Z,0.00
2018-08-30T00:11:27.855Z,0.00
2018-08-30T00:12:28.085Z,0.00
2018-08-30T00:13:28.316Z,0.00
2018-08-30T00:14:28.545Z,0.00
2018-08-30T00:15:28.773Z,0.00
2018-08-30T00:16:29.004Z,0.00
2018-08-30T00:17:29.240Z,0.00
2018-08-30T00:18:29.462Z,0.00
2018-08-30T00:19:29.688Z,0.00
2018-08-30T00:20:29.937Z,0.00
2018-08-30T00:21:30.142Z,0.00
2018-08-30T00:22:30.373Z,0.00
2018-08-30T00:23:30.598Z,0.00
2018-08-30T00:24:30.830Z,0.00
2018-08-30T00:25:31.057Z,0.00
2018-08-30T00:26:31.286Z,0.00
2018-08-30T00:27:31.524Z,0.00
2018-08-30T00:28:31.743Z,0.00
2018-08-30T00:29:31.973Z,0.00
2018-08-30T00:30:32.212Z,0.00
2018-08-30T00:31:32.446Z,0.00
2018-08-30T00:32:32.665Z,0.00
2018-08-30T00:33:32.898Z,0.00
2018-08-30T00:34:33.124Z,0.00
2018-08-30T00:35:33.353Z,0.00
2018-08-30T00:36:33.586Z,0.00
2018-08-30T00:37:33.804Z,0.00
2018-08-30T00:38:34.037Z,0.00
2018-08-30T00:39:34.253Z,0.00
2018-08-30T00:40:34.485Z,0.00
2018-08-30T00:41:34.719Z,0.00
2018-08-30T00:42:34.950Z,0.00
2018-08-30T00:43:35.177Z,0.00
2018-08-30T00:44:35.394Z,0.00
2018-08-30T00:45:35.626Z,0.00
2018-08-30T00:46:35.855Z,0.00
2018-08-30T00:47:36.086Z,0.00
2018-08-30T00:48:36.322Z,0.00
2018-08-30T00:49:36.543Z,0.00
2018-08-30T00:50:36.777Z,0.00
2018-08-30T00:51:37.004Z,0.00
2018-08-30T00:52:37.238Z,0.00
2018-08-30T00:53:37.471Z,0.00
2018-08-30T00:54:37.684Z,0.00
2018-08-30T00:55:37.913Z,0.00
2018-08-30T00:56:38.142Z,0.00
2018-08-30T00:57:38.372Z,0.00
2018-08-30T00:58:38.609Z,0.00
2018-08-30T00:59:38.834Z,0.00
2018-08-30T01:00:39.057Z,0.00
2018-08-30T01:01:39.283Z,0.00
2018-08-30T01:02:39.515Z,0.00
2018-08-30T01:03:39.744Z,0.00
2018-08-30T01:04:39.971Z,0.00
2018-08-30T01:05:40.207Z,0.00
2018-08-30T01:06:40.434Z,0.00
2018-08-30T01:07:40.664Z,0.00
2018-08-30T01:08:40.895Z,0.00
2018-08-30T01:09:41.125Z,0.00
2018-08-30T01:10:41.352Z,0.00
2018-08-30T01:11:41.581Z,0.00
2018-08-30T01:12:41.814Z,0.00
2018-08-30T01:13:42.050Z,0.00
2018-08-30T01:14:42.284Z,0.00
2018-08-30T01:15:42.502Z,0.00
2018-08-30T01:16:42.730Z,0.00
2018-08-30T01:17:42.970Z,0.00
2018-08-30T01:18:43.200Z,0.00
2018-08-30T01:19:43.411Z,0.00
2018-08-30T01:20:43.642Z,0.00
2018-08-30T01:21:43.875Z,0.00
2018-08-30T01:22:44.110Z,0.00
2018-08-30T01:23:44.334Z,0.00
2018-08-30T01:24:44.561Z,0.00
2018-08-30T01:25:44.787Z,0.00
2018-08-30T01:26:45.036Z,0.00
2018-08-30T01:27:45.245Z,0.00
2018-08-30T01:28:45.474Z,0.00
2018-08-30T01:29:45.705Z,0.00
2018-08-30T01:30:45.937Z,0.00
2018-08-30T01:31:46.165Z,0.00
2018-08-30T01:32:46.392Z,0.00
2018-08-30T01:33:46.620Z,0.00
2018-08-30T01:34:46.857Z,0.00
2018-08-30T01:35:47.075Z,0.00
2018-08-30T01:36:47.305Z,0.00
2018-08-30T01:37:47.539Z,0.00
2018-08-30T01:38:47.766Z,0.00
2018-08-30T01:39:48.001Z,0.00
2018-08-30T01:40:48.227Z,0.00
2018-08-30T01:41:48.444Z,0.00
2018-08-30T01:42:48.682Z,0.00
2018-08-30T01:43:48.900Z,0.00
2018-08-30T01:44:49.129Z,0.00
2018-08-30T01:45:49.372Z,0.00
2018-08-30T01:46:49.599Z,0.00
2018-08-30T01:47:49.824Z,0.00
2018-08-30T01:48:50.052Z,0.00
2018-08-30T01:49:50.297Z,0.00
2018-08-30T01:50:50.511Z,0.00
2018-08-30T01:51:50.744Z,0.00
2018-08-30T01:52:50.975Z,0.00
2018-08-30T01:53:51.200Z,0.00
2018-08-30T01:54:51.432Z,0.00
2018-08-30T01:55:51.660Z,0.00
2018-08-30T01:56:51.887Z,0.00
2018-08-30T01:57:52.118Z,0.00
2018-08-30T01:58:52.348Z,0.00
2018-08-30T01:59:52.582Z,0.00
2018-08-30T02:00:52.809Z,0.00
2018-08-30T02:01:53.037Z,0.00
2018-08-30T02:02:53.269Z,0.00
2018-08-30T02:03:53.499Z,0.00
2018-08-30T02:04:53.725Z,0.00
2018-08-30T02:05:53.948Z,0.00
2018-08-30T02:06:54.174Z,0.00
2018-08-30T02:07:54.408Z,0.00
2018-08-30T02:08:54.635Z,0.00
2018-08-30T02:09:54.872Z,0.00
2018-08-30T02:10:55.098Z,0.00
2018-08-30T02:11:55.328Z,0.00
2018-08-30T02:12:55.565Z,0.00
2018-08-30T02:13:55.783Z,0.00
2018-08-30T02:14:56.012Z,0.00
2018-08-30T02:15:56.238Z,0.00
2018-08-30T02:16:56.471Z,0.00
2018-08-30T02:17:56.701Z,0.00
2018-08-30T02:18:56.920Z,0.00
2018-08-30T02:19:57.141Z,0.00
2018-08-30T02:20:57.362Z,0.00
2018-08-30T02:21:57.591Z,0.00
2018-08-30T02:22:57.819Z,0.00
2018-08-30T02:23:58.049Z,0.00
2018-08-30T02:24:58.289Z,0.00
2018-08-30T02:25:58.518Z,0.00
2018-08-30T02:26:58.735Z,0.00
2018-08-30T02:27:58.976Z,0.00
2018-08-30T02:28:59.202Z,0.00
2018-08-30T02:29:59.435Z,0.00
2018-08-30T02:30:59.671Z,0.00
2018-08-30T02:32:08.818Z,0.00
2018-08-30T02:33:07.967Z,0.00
2018-08-30T02:34:00.412Z,0.00
2018-08-30T02:35:08.518Z,0.00
2018-08-30T02:36:00.836Z,0.00
2018-08-30T02:37:01.060Z,0.00
2018-08-30T02:38:09.213Z,0.00
2018-08-30T02:39:09.479Z,0.00
2018-08-30T02:40:09.651Z,0.00
2018-08-30T02:41:02.074Z,0.00
2018-08-30T02:42:02.304Z,0.00
2018-08-30T02:43:02.529Z,0.00
2018-08-30T02:44:02.777Z,0.00
2018-08-30T02:45:02.991Z,0.00
2018-08-30T02:46:03.214Z,0.00
2018-08-30T02:47:03.452Z,0.00
2018-08-30T02:48:03.675Z,0.00
2018-08-30T02:49:03.954Z,0.00
2018-08-30T02:50:04.150Z,0.00
2018-08-30T02:51:05.936Z,0.00
2018-08-30T02:52:04.535Z,0.00
2018-08-30T02:53:04.779Z,0.00
2018-08-30T02:54:05.005Z,0.00
2018-08-30T02:55:05.231Z,0.00
2018-08-30T02:56:05.456Z,0.00
2018-08-30T02:57:05.687Z,0.00
2018-08-30T02:58:05.915Z,0.00
2018-08-30T02:59:06.146Z,0.00
2018-08-30T03:00:06.385Z,0.00
2018-08-30T03:01:06.618Z,0.00
2018-08-30T03:02:06.829Z,0.00
2018-08-30T03:03:07.058Z,0.00
2018-08-30T03:04:07.284Z,0.00
2018-08-30T03:05:07.512Z,0.00
2018-08-30T03:06:07.742Z,0.00
2018-08-30T03:07:07.975Z,0.00
2018-08-30T03:08:08.204Z,0.00
2018-08-30T03:09:08.437Z,0.00
2018-08-30T03:10:08.662Z,0.00
2018-08-30T03:11:08.919Z,0.00
2018-08-30T03:12:09.133Z,0.00
2018-08-30T03:13:09.355Z,0.00
2018-08-30T03:14:09.581Z,0.00
2018-08-30T03:15:09.800Z,0.00
2018-08-30T03:16:10.043Z,0.00
2018-08-30T03:17:10.255Z,0.00
2018-08-30T03:18:10.493Z,0.00
2018-08-30T03:19:10.720Z,0.00
2018-08-30T03:20:10.963Z,0.00
2018-08-30T03:21:11.180Z,0.00
2018-08-30T03:22:11.517Z,0.00
2018-08-30T03:23:11.602Z,0.00
2018-08-30T03:24:11.830Z,0.00
2018-08-30T03:25:12.064Z,0.00
2018-08-30T03:26:12.289Z,0.00
2018-08-30T03:27:12.516Z,0.00
2018-08-30T03:28:12.746Z,0.00
2018-08-30T03:29:12.976Z,0.00
2018-08-30T03:30:13.219Z,0.00
2018-08-30T03:31:13.436Z,0.00
2018-08-30T03:32:13.660Z,0.00
2018-08-30T03:33:13.889Z,0.00
2018-08-30T03:34:14.114Z,0.00
2018-08-30T03:35:14.349Z,0.00
2018-08-30T03:36:14.576Z,0.00
2018-08-30T03:37:14.811Z,0.00
2018-08-30T03:38:15.041Z,0.00
2018-08-30T03:39:15.266Z,0.00
2018-08-30T03:40:15.489Z,0.00
2018-08-30T03:41:15.724Z,0.00
2018-08-30T03:42:15.953Z,0.00
2018-08-30T03:43:16.186Z,0.00
2018-08-30T03:44:16.415Z,0.00
2018-08-30T03:45:16.643Z,0.00
2018-08-30T03:46:16.867Z,0.00
2018-08-30T03:47:17.099Z,0.00
2018-08-30T03:48:17.327Z,0.00
2018-08-30T03:49:17.560Z,0.00
2018-08-30T03:50:17.788Z,0.00
2018-08-30T03:51:18.017Z,0.00
2018-08-30T03:52:18.246Z,0.00
2018-08-30T03:53:18.466Z,0.00
2018-08-30T03:54:18.702Z,0.00
2018-08-30T03:55:19.014Z,0.00
2018-08-30T03:56:19.159Z,0.00
2018-08-30T03:57:19.390Z,0.00
2018-08-30T03:58:19.648Z,0.00
2018-08-30T03:59:19.852Z,0.00
2018-08-30T04:00:20.081Z,0.00
2018-08-30T04:01:20.309Z,0.00
2018-08-30T04:02:20.543Z,0.00
2018-08-30T04:03:20.776Z,0.00
2018-08-30T04:04:21.102Z,0.00
2018-08-30T04:05:21.242Z,0.00
2018-08-30T04:06:21.468Z,0.00
2018-08-30T04:07:21.700Z,0.00
2018-08-30T04:08:21.932Z,0.00
2018-08-30T04:09:22.161Z,0.00
2018-08-30T04:10:22.394Z,4.00
2018-08-30T04:11:22.617Z,4.00
2018-08-30T04:12:22.849Z,4.00
2018-08-30T04:13:23.124Z,4.00
2018-08-30T04:14:23.311Z,4.00
2018-08-30T04:15:23.544Z,4.00
2018-08-30T04:16:23.774Z,4.00
2018-08-30T04:17:24.002Z,4.00
2018-08-30T04:18:24.231Z,0.00
2018-08-30T04:19:24.468Z,0.00
2018-08-30T04:20:24.688Z,0.00
2018-08-30T04:21:24.918Z,0.00
2018-08-30T04:22:25.148Z,4.00
2018-08-30T04:23:25.382Z,4.00
2018-08-30T04:24:25.611Z,4.00
2018-08-30T04:25:25.838Z,4.00
2018-08-30T04:26:26.068Z,4.00
2018-08-30T04:27:26.290Z,8.00
2018-08-30T04:28:26.515Z,8.00
2018-08-30T04:29:26.749Z,8.00
2018-08-30T04:30:26.986Z,8.00
2018-08-30T04:31:27.269Z,8.00
2018-08-30T04:32:27.441Z,8.00
2018-08-30T04:33:27.667Z,8.00
2018-08-30T04:34:27.901Z,12.00
2018-08-30T04:35:28.129Z,12.00
2018-08-30T04:36:28.362Z,16.00
2018-08-30T04:37:28.601Z,16.00
2018-08-30T04:38:28.831Z,20.00
2018-08-30T04:39:29.045Z,24.00
2018-08-30T04:40:29.273Z,28.00
2018-08-30T04:41:29.503Z,36.00
2018-08-30T04:42:29.792Z,36.00
2018-08-30T04:43:29.966Z,40.00
2018-08-30T04:44:30.205Z,48.00
2018-08-30T04:45:30.437Z,56.00
2018-08-30T04:46:30.674Z,56.00
2018-08-30T04:47:30.904Z,68.00
2018-08-30T04:48:31.129Z,72.00
2018-08-30T04:49:31.362Z,76.00
2018-08-30T04:50:31.600Z,76.00
2018-08-30T04:51:31.814Z,84.00
2018-08-30T04:52:32.046Z,100.00
2018-08-30T04:53:32.271Z,112.00
2018-08-30T04:54:32.497Z,116.00
2018-08-30T04:55:32.727Z,132.00
2018-08-30T04:56:32.959Z,148.00
2018-08-30T04:57:33.189Z,160.00
2018-08-30T04:58:33.415Z,168.00
2018-08-30T04:59:33.647Z,192.00
2018-08-30T05:00:33.883Z,220.00
2018-08-30T05:01:34.108Z,228.00
2018-08-30T05:02:34.330Z,212.00
2018-08-30T05:03:34.570Z,212.00
2018-08-30T05:04:34.797Z,232.00
2018-08-30T05:05:35.019Z,228.00
2018-08-30T05:06:35.252Z,224.00
2018-08-30T05:07:35.480Z,252.00
2018-08-30T05:08:35.709Z,288.00
2018-08-30T05:09:35.936Z,312.00
2018-08-30T05:10:36.157Z,348.00
2018-08-30T05:11:36.388Z,352.00
2018-08-30T05:12:36.620Z,324.00
2018-08-30T05:13:36.849Z,292.00
2018-08-30T05:14:37.076Z,272.00
2018-08-30T05:15:37.306Z,256.00
2018-08-30T05:16:37.615Z,256.00
2018-08-30T05:17:37.766Z,260.00
2018-08-30T05:18:37.997Z,256.00
2018-08-30T05:19:38.224Z,240.00
2018-08-30T05:20:38.457Z,212.00
2018-08-30T05:21:38.683Z,192.00
2018-08-30T05:22:38.908Z,180.00
2018-08-30T05:23:39.139Z,184.00
2018-08-30T05:24:39.369Z,180.00
2018-08-30T05:25:39.600Z,180.00
2018-08-30T05:26:39.832Z,188.00
2018-08-30T05:27:40.061Z,204.00
2018-08-30T05:28:40.291Z,212.00
2018-08-30T05:29:40.557Z,212.00
2018-08-30T05:30:40.749Z,216.00
2018-08-30T05:31:40.978Z,244.00
2018-08-30T05:32:41.206Z,256.00
2018-08-30T05:33:41.439Z,252.00
2018-08-30T05:34:41.664Z,248.00
2018-08-30T05:35:41.930Z,248.00
2018-08-30T05:36:42.124Z,244.00
2018-08-30T05:37:42.375Z,236.00
2018-08-30T05:38:42.581Z,244.00
2018-08-30T05:39:42.811Z,248.00
2018-08-30T05:40:43.037Z,232.00
2018-08-30T05:41:43.273Z,228.00
2018-08-30T05:42:43.502Z,232.00
2018-08-30T05:43:43.735Z,236.00
2018-08-30T05:44:43.977Z,240.00
2018-08-30T05:45:44.189Z,240.00
2018-08-30T05:46:44.422Z,232.00
2018-08-30T05:47:44.655Z,236.00
2018-08-30T05:48:44.880Z,264.00
2018-08-30T05:49:45.116Z,308.00
2018-08-30T05:50:45.344Z,376.00
2018-08-30T05:51:45.577Z,436.00
2018-08-30T05:52:45.801Z,456.00
2018-08-30T05:53:46.032Z,448.00
2018-08-30T05:54:46.263Z,412.00
2018-08-30T05:55:46.490Z,368.00
2018-08-30T05:56:54.638Z,344.00
2018-08-30T05:57:54.876Z,344.00
2018-08-30T05:58:47.107Z,348.00
2018-08-30T05:59:55.381Z,344.00
2018-08-30T06:00:55.495Z,328.00
2018-08-30T06:01:47.863Z,324.00
2018-08-30T06:02:56.067Z,324.00
2018-08-30T06:03:56.312Z,336.00
2018-08-30T06:04:48.562Z,388.00
2018-08-30T06:05:48.771Z,428.00
2018-08-30T06:06:49.008Z,452.00
2018-08-30T06:07:49.236Z,472.00
2018-08-30T06:08:49.477Z,520.00
2018-08-30T06:09:49.932Z,532.00
2018-08-30T06:10:49.897Z,512.00
2018-08-30T06:11:50.131Z,500.00
2018-08-30T06:12:50.361Z,532.00
2018-08-30T06:13:50.583Z,584.00
2018-08-30T06:14:50.821Z,636.00
2018-08-30T06:15:51.048Z,640.00
2018-08-30T06:16:51.290Z,664.00
2018-08-30T06:17:51.517Z,728.00
2018-08-30T06:18:51.742Z,788.00
2018-08-30T06:19:51.972Z,736.00
2018-08-30T06:20:52.200Z,652.00
2018-08-30T06:21:52.429Z,640.00
2018-08-30T06:22:52.667Z,668.00
2018-08-30T06:23:52.894Z,656.00
2018-08-30T06:24:53.124Z,656.00
2018-08-30T06:25:53.349Z,664.00
2018-08-30T06:26:53.621Z,712.00
2018-08-30T06:27:53.800Z,724.00
2018-08-30T06:28:54.034Z,696.00
2018-08-30T06:29:54.264Z,672.00
2018-08-30T06:30:54.494Z,668.00
2018-08-30T06:31:54.723Z,692.00
2018-08-30T06:32:55.019Z,680.00
2018-08-30T06:33:55.182Z,644.00
2018-08-30T06:34:55.409Z,628.00
2018-08-30T06:35:55.637Z,588.00
2018-08-30T06:36:55.886Z,576.00
2018-08-30T06:37:56.097Z,588.00
2018-08-30T06:38:56.325Z,608.00
2018-08-30T06:39:56.556Z,612.00
2018-08-30T06:40:56.775Z,620.00
2018-08-30T06:41:57.005Z,552.00
2018-08-30T06:42:57.239Z,456.00
2018-08-30T06:43:57.465Z,400.00
2018-08-30T06:44:57.696Z,396.00
2018-08-30T06:45:57.923Z,416.00
2018-08-30T06:46:58.156Z,412.00
2018-08-30T06:47:58.385Z,460.00
2018-08-30T06:48:58.620Z,460.00
2018-08-30T06:49:58.847Z,412.00
2018-08-30T06:50:59.072Z,440.00
2018-08-30T06:51:59.310Z,576.00
2018-08-30T06:52:59.526Z,648.00
2018-08-30T06:53:59.757Z,572.00
2018-08-30T06:54:59.987Z,556.00
2018-08-30T06:56:00.216Z,584.00
2018-08-30T06:57:00.448Z,696.00
2018-08-30T06:58:00.672Z,852.00
2018-08-30T06:59:00.907Z,892.00
2018-08-30T07:00:01.139Z,808.00
2018-08-30T07:01:01.363Z,724.00
2018-08-30T07:02:01.596Z,700.00
2018-08-30T07:03:01.821Z,768.00
2018-08-30T07:04:02.054Z,776.00
2018-08-30T07:05:02.284Z,704.00
2018-08-30T07:06:02.513Z,664.00
2018-08-30T07:07:02.744Z,624.00
2018-08-30T07:08:02.975Z,628.00
2018-08-30T07:09:03.200Z,692.00
2018-08-30T07:10:03.440Z,708.00
2018-08-30T07:11:03.660Z,688.00
2018-08-30T07:12:03.894Z,704.00
2018-08-30T07:13:04.118Z,728.00
2018-08-30T07:14:04.345Z,780.00
2018-08-30T07:15:04.615Z,856.00
2018-08-30T07:16:04.807Z,900.00
2018-08-30T07:17:05.037Z,968.00
2018-08-30T07:18:05.269Z,1096.00
2018-08-30T07:19:05.501Z,1076.00
2018-08-30T07:20:05.723Z,1028.00
2018-08-30T07:21:06.037Z,1016.00
2018-08-30T07:22:06.183Z,1032.00
2018-08-30T07:23:06.408Z,1080.00
2018-08-30T07:24:06.644Z,1180.00
2018-08-30T07:25:06.867Z,1268.00
2018-08-30T07:26:07.097Z,1236.00
2018-08-30T07:27:07.325Z,1156.00
2018-08-30T07:28:07.569Z,1120.00
2018-08-30T07:29:07.780Z,1104.00
2018-08-30T07:30:08.004Z,1156.00
2018-08-30T07:31:08.230Z,1184.00
2018-08-30T07:32:08.465Z,1200.00
2018-08-30T07:33:08.691Z,1200.00
2018-08-30T07:34:08.951Z,1200.00
2018-08-30T07:35:09.222Z,1204.00
2018-08-30T07:36:09.381Z,1208.00
2018-08-30T07:37:09.621Z,1192.00
2018-08-30T07:38:09.845Z,1232.00
2018-08-30T07:39:10.061Z,1260.00
2018-08-30T07:40:10.291Z,1284.00
2018-08-30T07:41:10.518Z,1540.00
2018-08-30T07:42:10.756Z,1908.00
2018-08-30T07:43:10.986Z,2196.00
2018-08-30T07:44:11.292Z,2216.00
2018-08-30T07:45:11.443Z,2104.00
2018-08-30T07:46:11.676Z,2208.00
2018-08-30T07:47:11.949Z,2340.00
2018-08-30T07:48:12.140Z,2300.00
2018-08-30T07:49:12.379Z,2144.00
2018-08-30T07:50:12.601Z,2152.00
2018-08-30T07:51:12.832Z,2216.00
2018-08-30T07:52:13.053Z,2308.00
2018-08-30T07:53:13.283Z,2400.00
2018-08-30T07:54:13.511Z,2148.00
2018-08-30T07:55:13.745Z,1840.00
2018-08-30T07:56:13.975Z,1704.00
2018-08-30T07:57:14.255Z,1644.00
2018-08-30T07:58:14.434Z,1548.00
2018-08-30T07:59:14.666Z,1456.00
2018-08-30T08:00:14.890Z,1424.00
2018-08-30T08:01:15.122Z,1524.00
2018-08-30T08:02:15.372Z,1740.00
2018-08-30T08:03:15.571Z,1908.00
2018-08-30T08:04:15.813Z,2072.00
2018-08-30T08:05:16.046Z,2256.00
2018-08-30T08:06:16.275Z,2320.00
2018-08-30T08:07:16.564Z,2248.00
2018-08-30T08:08:16.731Z,2136.00
2018-08-30T08:09:16.970Z,2048.00
2018-08-30T08:10:17.222Z,2028.00
2018-08-30T08:11:17.453Z,2096.00
2018-08-30T08:12:17.681Z,2140.00
2018-08-30T08:13:17.908Z,2312.00
2018-08-30T08:14:18.139Z,2576.00
2018-08-30T08:15:18.369Z,2916.00
2018-08-30T08:16:18.598Z,3084.00
2018-08-30T08:17:18.826Z,3052.00
2018-08-30T08:18:19.058Z,2960.00
2018-08-30T08:19:19.286Z,3024.00
2018-08-30T08:20:19.519Z,3208.00
2018-08-30T08:21:19.754Z,3316.00
2018-08-30T08:22:19.988Z,3436.00
2018-08-30T08:23:20.216Z,3472.00
2018-08-30T08:24:20.451Z,3444.00
2018-08-30T08:25:20.726Z,3412.00
2018-08-30T08:26:20.905Z,3212.00
2018-08-30T08:27:21.137Z,2952.00
2018-08-30T08:28:21.369Z,3016.00
2018-08-30T08:29:21.598Z,3068.00
2018-08-30T08:30:21.828Z,3340.00
2018-08-30T08:31:22.164Z,3952.00
2018-08-30T08:32:22.294Z,4304.00
2018-08-30T08:33:22.517Z,4244.00
2018-08-30T08:34:22.747Z,4120.00
2018-08-30T08:35:22.977Z,4092.00
2018-08-30T08:36:23.205Z,4244.00
2018-08-30T08:37:23.437Z,4524.00
2018-08-30T08:38:23.666Z,4828.00
2018-08-30T08:39:23.897Z,5056.00
2018-08-30T08:40:24.121Z,5252.00
2018-08-30T08:41:24.344Z,5448.00
2018-08-30T08:42:24.573Z,5540.00
2018-08-30T08:43:24.827Z,5520.00
2018-08-30T08:44:25.058Z,5436.00
2018-08-30T08:45:25.289Z,5368.00
2018-08-30T08:46:25.508Z,5420.00
2018-08-30T08:47:25.752Z,5700.00
2018-08-30T08:48:25.981Z,6008.00
2018-08-30T08:49:26.218Z,5884.00
2018-08-30T08:50:26.443Z,5544.00
2018-08-30T08:51:26.691Z,5576.00
2018-08-30T08:52:26.905Z,6120.00
2018-08-30T08:53:27.136Z,6940.00
2018-08-30T08:54:27.354Z,7520.00
2018-08-30T08:55:27.590Z,7792.00
2018-08-30T08:56:27.818Z,8036.00
2018-08-30T08:57:28.056Z,8204.00
2018-08-30T08:58:28.280Z,8392.00
2018-08-30T08:59:28.510Z,8684.00
2018-08-30T09:00:28.738Z,8828.00
2018-08-30T09:01:29.027Z,8720.00
2018-08-30T09:02:29.201Z,8424.00
2018-08-30T09:03:29.435Z,8176.00
2018-08-30T09:04:29.663Z,8152.00
2018-08-30T09:05:29.894Z,8292.00
2018-08-30T09:06:30.177Z,7908.00
2018-08-30T09:07:30.406Z,7296.00
2018-08-30T09:08:30.591Z,6876.00
2018-08-30T09:09:30.819Z,6596.00
2018-08-30T09:10:31.051Z,6672.00
2018-08-30T09:11:31.285Z,6876.00
2018-08-30T09:12:31.505Z,7036.00
2018-08-30T09:13:31.733Z,7108.00
2018-08-30T09:14:32.015Z,7104.00
2018-08-30T09:15:32.194Z,7080.00
2018-08-30T09:16:32.431Z,7132.00
2018-08-30T09:17:32.657Z,7176.00
2018-08-30T09:18:32.984Z,7300.00
2018-08-30T09:19:33.125Z,7492.00
2018-08-30T09:20:33.399Z,7676.00
2018-08-30T09:21:33.581Z,7896.00
2018-08-30T09:22:33.821Z,8148.00
2018-08-30T09:23:34.052Z,8112.00
2018-08-30T09:24:34.283Z,7756.00
2018-08-30T09:25:34.514Z,7272.00
2018-08-30T09:26:34.742Z,7024.00
2018-08-30T09:27:34.978Z,6812.00
2018-08-30T09:28:35.206Z,6428.00
2018-08-30T09:29:35.442Z,5936.00
2018-08-30T09:30:35.674Z,5680.00
2018-08-30T09:31:35.908Z,5812.00
2018-08-30T09:32:45.241Z,6152.00
2018-08-30T09:33:44.294Z,6564.00
2018-08-30T09:34:44.418Z,7264.00
2018-08-30T09:35:45.693Z,8112.00
2018-08-30T09:36:44.959Z,8816.00
2018-08-30T09:37:45.371Z,9244.00
2018-08-30T09:38:37.570Z,9632.00
2018-08-30T09:39:45.621Z,9660.00
2018-08-30T09:40:38.079Z,9560.00
2018-08-30T09:41:38.304Z,9228.00
2018-08-30T09:42:47.327Z,8948.00
2018-08-30T09:43:38.791Z,8792.00
2018-08-30T09:44:38.997Z,8648.00
2018-08-30T09:45:39.230Z,8528.00
2018-08-30T09:46:39.456Z,8236.00
2018-08-30T09:47:39.694Z,7820.00
2018-08-30T09:48:39.924Z,7588.00
2018-08-30T09:49:40.187Z,7664.00
2018-08-30T09:50:40.385Z,7592.00
2018-08-30T09:51:40.621Z,7500.00
2018-08-30T09:52:40.860Z,7436.00
2018-08-30T09:53:41.084Z,7524.00
2018-08-30T09:54:41.319Z,7716.00
2018-08-30T09:55:41.579Z,8100.00
2018-08-30T09:56:41.855Z,8612.00
2018-08-30T09:57:42.081Z,9028.00
2018-08-30T09:58:42.245Z,9368.00
2018-08-30T09:59:42.490Z,9396.00
2018-08-30T10:00:42.719Z,9404.00
2018-08-30T10:01:42.950Z,9648.00
2018-08-30T10:02:43.184Z,9812.00
2018-08-30T10:03:43.465Z,9772.00
2018-08-30T10:04:43.745Z,9612.00
2018-08-30T10:05:43.882Z,9492.00
2018-08-30T10:06:44.133Z,9520.00
2018-08-30T10:07:44.353Z,9264.00
2018-08-30T10:08:44.578Z,8568.00
2018-08-30T10:09:44.816Z,7880.00
2018-08-30T10:10:45.044Z,7988.00
2018-08-30T10:11:45.274Z,8380.00
2018-08-30T10:12:45.515Z,8592.00
2018-08-30T10:13:45.752Z,8664.00
2018-08-30T10:14:45.984Z,8480.00
2018-08-30T10:15:46.258Z,7904.00
2018-08-30T10:16:46.452Z,7148.00
2018-08-30T10:17:46.682Z,6492.00
2018-08-30T10:18:46.911Z,6028.00
2018-08-30T10:19:47.146Z,5596.00
2018-08-30T10:20:47.369Z,5240.00
2018-08-30T10:21:47.607Z,4924.00
2018-08-30T10:22:47.838Z,4884.00
2018-08-30T10:23:48.068Z,4956.00
2018-08-30T10:24:48.308Z,4972.00
2018-08-30T10:25:48.534Z,4848.00
2018-08-30T10:26:48.761Z,4684.00
2018-08-30T10:27:48.993Z,4700.00
2018-08-30T10:28:49.228Z,4888.00
2018-08-30T10:29:49.458Z,5184.00
2018-08-30T10:30:49.689Z,5348.00
2018-08-30T10:31:49.940Z,5424.00
2018-08-30T10:32:50.148Z,5468.00
2018-08-30T10:33:50.384Z,5508.00
2018-08-30T10:34:50.620Z,5572.00
2018-08-30T10:35:50.852Z,5684.00
2018-08-30T10:36:51.090Z,5832.00
2018-08-30T10:37:51.333Z,5996.00
2018-08-30T10:38:51.535Z,6192.00
2018-08-30T10:39:51.767Z,6456.00
2018-08-30T10:40:52.005Z,6732.00
2018-08-30T10:41:52.228Z,6904.00
2018-08-30T10:42:52.507Z,7016.00
2018-08-30T10:43:52.687Z,7228.00
2018-08-30T10:44:52.922Z,7516.00
2018-08-30T10:45:53.163Z,7700.00
2018-08-30T10:46:53.383Z,7644.00
2018-08-30T10:47:53.617Z,7588.00
2018-08-30T10:48:53.848Z,7592.00
2018-08-30T10:49:54.121Z,7592.00
2018-08-30T10:50:54.312Z,7556.00
2018-08-30T10:51:54.539Z,7496.00
2018-08-30T10:52:54.784Z,7500.00
2018-08-30T10:53:54.995Z,7612.00
2018-08-30T10:54:55.228Z,7880.00
2018-08-30T10:55:55.461Z,8160.00
2018-08-30T10:56:55.698Z,8376.00
2018-08-30T10:57:55.920Z,8456.00
2018-08-30T10:58:56.152Z,8424.00
2018-08-30T10:59:56.388Z,8324.00
2018-08-30T11:00:56.619Z,8096.00
2018-08-30T11:01:56.848Z,7776.00
2018-08-30T11:02:57.087Z,7416.00
2018-08-30T11:03:57.347Z,7164.00
2018-08-30T11:04:57.550Z,6852.00
2018-08-30T11:05:57.780Z,6444.00
2018-08-30T11:06:58.015Z,6080.00
2018-08-30T11:07:58.238Z,5784.00
2018-08-30T11:08:58.493Z,5432.00
2018-08-30T11:09:58.728Z,4996.00
2018-08-30T11:10:58.960Z,4656.00
2018-08-30T11:11:59.191Z,4472.00
2018-08-30T11:12:59.648Z,4360.00
2018-08-30T11:13:59.783Z,4148.00
2018-08-30T11:14:59.913Z,3820.00
2018-08-30T11:16:00.144Z,3440.00
2018-08-30T11:17:00.384Z,3128.00
2018-08-30T11:18:00.617Z,2904.00
2018-08-30T11:19:00.847Z,2728.00
2018-08-30T11:20:01.083Z,2612.00
2018-08-30T11:21:01.313Z,2600.00
2018-08-30T11:22:01.550Z,2680.00
2018-08-30T11:23:01.778Z,2800.00
2018-08-30T11:24:02.007Z,2940.00
2018-08-30T11:25:02.239Z,3068.00
2018-08-30T11:26:02.471Z,3144.00
2018-08-30T11:27:02.707Z,3200.00
2018-08-30T11:28:02.943Z,3212.00
2018-08-30T11:29:03.172Z,3168.00
2018-08-30T11:30:03.405Z,3152.00
2018-08-30T11:31:03.632Z,3192.00
2018-08-30T11:32:03.866Z,3228.00
2018-08-30T11:33:04.099Z,3288.00
2018-08-30T11:34:04.338Z,3364.00
2018-08-30T11:35:04.557Z,3460.00
2018-08-30T11:36:04.792Z,3892.00
2018-08-30T11:37:05.038Z,4144.00
2018-08-30T11:38:05.254Z,4288.00
2018-08-30T11:39:05.489Z,4356.00
2018-08-30T11:40:05.726Z,4528.00
2018-08-30T11:41:06.007Z,4736.00
2018-08-30T11:42:06.186Z,4972.00
2018-08-30T11:43:06.418Z,5176.00
2018-08-30T11:44:06.649Z,5312.00
2018-08-30T11:45:06.885Z,5380.00
2018-08-30T11:46:07.121Z,5380.00
2018-08-30T11:47:07.358Z,5320.00
2018-08-30T11:48:07.591Z,5232.00
2018-08-30T11:49:07.818Z,5160.00
2018-08-30T11:50:08.051Z,5216.00
2018-08-30T11:51:08.329Z,5460.00
2018-08-30T11:52:08.511Z,5740.00
2018-08-30T11:53:08.732Z,5924.00
2018-08-30T11:54:08.971Z,6012.00
2018-08-30T11:55:09.200Z,5952.00
2018-08-30T11:56:09.453Z,5796.00
2018-08-30T11:57:09.660Z,5648.00
2018-08-30T11:58:09.898Z,5564.00
2018-08-30T11:59:10.133Z,5556.00
2018-08-30T12:00:10.362Z,5560.00
2018-08-30T12:01:10.598Z,5544.00
2018-08-30T12:02:10.829Z,5604.00
2018-08-30T12:03:11.061Z,5752.00
2018-08-30T12:04:11.292Z,6028.00
2018-08-30T12:05:11.524Z,6340.00
2018-08-30T12:06:11.755Z,6688.00
2018-08-30T12:07:11.987Z,7148.00
2018-08-30T12:08:12.234Z,7684.00
2018-08-30T12:09:12.449Z,8228.00
2018-08-30T12:10:12.700Z,8724.00
2018-08-30T12:11:12.989Z,9204.00
2018-08-30T12:12:13.151Z,9584.00
2018-08-30T12:13:13.373Z,9968.00
2018-08-30T12:14:13.603Z,10440.00
2018-08-30T12:15:13.836Z,10332.00
2018-08-30T12:16:14.068Z,10432.00
2018-08-30T12:17:14.299Z,10596.00
2018-08-30T12:18:14.531Z,10600.00
2018-08-30T12:19:14.766Z,10424.00
2018-08-30T12:20:15.000Z,10156.00
2018-08-30T12:21:15.235Z,9920.00
2018-08-30T12:22:15.465Z,9668.00
2018-08-30T12:23:15.698Z,9484.00
2018-08-30T12:24:15.931Z,9296.00
2018-08-30T12:25:16.165Z,9104.00
2018-08-30T12:26:16.395Z,8804.00
2018-08-30T12:27:16.629Z,8508.00
2018-08-30T12:28:16.954Z,8216.00
2018-08-30T12:29:17.103Z,7932.00
2018-08-30T12:30:17.387Z,7656.00
2018-08-30T12:31:17.680Z,7404.00
2018-08-30T12:32:17.845Z,7260.00
2018-08-30T12:33:18.058Z,7140.00
2018-08-30T12:34:18.293Z,7052.00
2018-08-30T12:35:18.588Z,7024.00
2018-08-30T12:36:18.788Z,7032.00
2018-08-30T12:37:19.065Z,7036.00
2018-08-30T12:38:19.251Z,7068.00